Time;durP1;ratioP1;P1;durP2;ratioP2;P2;SDS_P1;SDS_P2;PMS_P1;PMS_P2;Temp;Humidity;BMP_temperature;BMP_pressure;BME280_temperature;BME280_humidity;BME280_pressure;Samples;Min_cycle;Max_cycle;Signal;HPM_P1;HPM_P2
2021/01/10 00:01:24;;;;;;;3.08;1.30;;;13.50;99.00;;;;;;4133841;34;20061;-87
2021/01/10 00:03:53;;;;;;;3.25;0.55;;;13.40;99.40;;;;;;4124058;34;20076;-84
2021/01/10 00:06:20;;;;;;;3.42;0.88;;;13.40;99.90;;;;;;4135390;34;20122;-85
2021/01/10 00:08:48;;;;;;;9.52;1.05;;;13.30;99.90;;;;;;4122175;34;20072;-87
2021/01/10 00:11:17;;;;;;;2.80;0.88;;;13.20;99.90;;;;;;4134547;34;20057;-85
2021/01/10 00:13:45;;;;;;;4.35;1.33;;;13.30;99.90;;;;;;4133071;34;20104;-86
2021/01/10 00:16:13;;;;;;;3.03;0.80;;;13.30;98.50;;;;;;4119334;34;20496;-85
2021/01/10 00:18:41;;;;;;;2.72;1.08;;;13.30;99.30;;;;;;4134934;34;20159;-86
2021/01/10 00:21:09;;;;;;;3.50;0.90;;;13.40;99.90;;;;;;4121851;34;20050;-86
2021/01/10 00:23:36;;;;;;;3.25;1.02;;;13.50;99.90;;;;;;4119210;34;20104;-84
2021/01/10 00:26:04;;;;;;;2.72;0.70;;;13.30;99.90;;;;;;4122279;34;20068;-85
2021/01/10 00:28:32;;;;;;;3.70;1.12;;;13.20;99.90;;;;;;4119990;34;20811;-86
2021/01/10 00:31:01;;;;;;;2.53;0.95;;;13.00;99.90;;;;;;4126375;34;20061;-86
2021/01/10 00:33:29;;;;;;;1.27;0.50;;;12.90;99.90;;;;;;4130299;34;20064;-86
2021/01/10 00:35:57;;;;;;;3.92;0.70;;;12.80;99.90;;;;;;4119831;34;20104;-85
2021/01/10 00:38:25;;;;;;;3.35;0.98;;;12.80;99.90;;;;;;4134812;34;20426;-86
2021/01/10 00:40:53;;;;;;;11.45;0.90;;;12.80;99.90;;;;;;4136871;34;20095;-86
2021/01/10 00:43:21;;;;;;;2.45;0.80;;;12.80;99.90;;;;;;4124632;34;20053;-85
2021/01/10 00:45:49;;;;;;;5.55;1.10;;;12.80;99.90;;;;;;4116683;34;20119;-85
2021/01/10 00:48:18;;;;;;;1.30;0.60;;;12.80;99.90;;;;;;4123733;34;20382;-85
2021/01/10 00:50:46;;;;;;;5.30;0.88;;;12.80;99.90;;;;;;4120050;34;20069;-85
2021/01/10 00:53:15;;;;;;;3.00;1.00;;;12.80;99.90;;;;;;4139910;34;20076;-87
2021/01/10 00:55:43;;;;;;;7.45;1.10;;;12.80;99.90;;;;;;4130718;34;20121;-85
2021/01/10 00:58:11;;;;;;;2.95;1.10;;;12.80;99.90;;;;;;4124173;34;20126;-86
2021/01/10 01:00:40;;;;;;;3.92;0.82;;;12.90;99.90;;;;;;4136003;34;20061;-86
2021/01/10 01:03:08;;;;;;;4.40;1.10;;;13.00;99.90;;;;;;4139700;34;20127;-86
2021/01/10 01:05:39;;;;;;;4.60;0.82;;;13.20;99.90;;;;;;4124562;34;20087;-85
2021/01/10 01:08:07;;;;;;;2.92;0.90;;;13.20;99.90;;;;;;4135481;34;20136;-86
2021/01/10 01:10:36;;;;;;;4.43;0.70;;;13.10;99.90;;;;;;4121505;34;20096;-86
2021/01/10 01:13:04;;;;;;;6.50;1.37;;;13.30;99.90;;;;;;4124136;34;20820;-85
2021/01/10 01:15:32;;;;;;;5.72;1.52;;;13.40;99.90;;;;;;4133759;34;20127;-86
2021/01/10 01:18:00;;;;;;;7.10;1.37;;;13.50;99.90;;;;;;4123250;34;20064;-85
2021/01/10 01:20:28;;;;;;;2.40;0.95;;;13.50;99.90;;;;;;4132020;34;20104;-85
2021/01/10 01:22:56;;;;;;;5.07;1.23;;;13.50;99.90;;;;;;4125404;34;20090;-86
2021/01/10 01:25:37;;;;;;;3.67;0.95;;;13.40;99.90;;;;;;4124916;34;20100;-87
2021/01/10 01:28:08;;;;;;;1.23;0.70;;;13.20;99.90;;;;;;4126396;34;20065;-86
2021/01/10 01:30:36;;;;;;;3.50;0.70;;;13.10;99.90;;;;;;4139642;34;20430;-85
2021/01/10 01:33:04;;;;;;;0.82;0.40;;;13.00;99.90;;;;;;4133746;34;20052;-85
2021/01/10 01:35:32;;;;;;;3.92;1.20;;;13.00;99.90;;;;;;4133597;34;20147;-85
2021/01/10 01:38:00;;;;;;;9.52;1.60;;;13.00;99.90;;;;;;4135131;34;20465;-85
2021/01/10 01:40:28;;;;;;;4.97;1.30;;;12.90;99.90;;;;;;4134409;34;20044;-85
2021/01/10 01:42:56;;;;;;;5.43;1.23;;;12.90;99.90;;;;;;4140929;34;20084;-85
2021/01/10 01:45:24;;;;;;;9.65;1.30;;;12.90;99.90;;;;;;4145297;34;20064;-85
2021/01/10 01:47:54;;;;;;;4.97;1.15;;;12.90;99.90;;;;;;4145947;34;20174;-85
2021/01/10 01:50:22;;;;;;;5.45;1.42;;;13.00;99.90;;;;;;4139875;34;20053;-85
2021/01/10 01:52:50;;;;;;;17.95;2.22;;;13.10;99.90;;;;;;4130963;34;20152;-85
2021/01/10 01:55:18;;;;;;;5.10;1.48;;;13.10;99.90;;;;;;4130494;34;20088;-87
2021/01/10 01:57:45;;;;;;;5.20;1.00;;;13.10;99.90;;;;;;4142014;34;20092;-86
2021/01/10 02:00:16;;;;;;;4.50;1.20;;;13.30;99.90;;;;;;4130022;34;20110;-85
2021/01/10 02:02:44;;;;;;;8.40;2.03;;;13.40;99.90;;;;;;4117843;34;20193;-86
2021/01/10 02:05:17;;;;;;;7.60;1.17;;;13.50;99.90;;;;;;4131612;34;20065;-84
2021/01/10 02:07:57;;;;;;;7.75;1.75;;;13.50;99.90;;;;;;4143090;34;20100;-86
2021/01/10 02:10:30;;;;;;;5.35;1.10;;;13.50;99.90;;;;;;4139784;34;20144;-86
2021/01/10 02:13:02;;;;;;;7.60;1.27;;;13.60;99.90;;;;;;4141973;34;20068;-86
2021/01/10 02:15:35;;;;;;;3.37;0.82;;;13.40;99.90;;;;;;4140518;34;20094;-86
2021/01/10 02:18:06;;;;;;;5.30;1.12;;;13.50;99.90;;;;;;4143457;34;20061;-86
2021/01/10 02:20:37;;;;;;;7.82;1.23;;;13.40;99.90;;;;;;4129972;34;20083;-85
2021/01/10 02:23:22;;;;;;;6.20;1.52;;;13.20;99.90;;;;;;4133076;34;20061;-86
2021/01/10 02:25:52;;;;;;;2.70;1.20;;;13.00;99.90;;;;;;4129534;34;20104;-86
2021/01/10 02:28:25;;;;;;;1.65;0.75;;;12.90;99.90;;;;;;4138478;34;20188;-86
2021/01/10 02:30:56;;;;;;;4.43;1.20;;;12.90;99.90;;;;;;4143819;34;20155;-85
2021/01/10 02:33:48;;;;;;;7.12;1.10;;;12.90;99.90;;;;;;4137030;34;20144;-86
2021/01/10 02:36:27;;;;;;;5.87;0.95;;;13.00;99.90;;;;;;4129350;34;20068;-87
2021/01/10 02:39:01;;;;;;;4.53;1.37;;;13.00;99.90;;;;;;4132267;34;20201;-85
2021/01/10 02:41:53;;;;;;;4.27;1.30;;;13.00;99.90;;;;;;4133137;34;20758;-85
2021/01/10 02:44:52;;;;;;;6.37;1.48;;;13.10;99.90;;;;;;4144409;34;20377;-85
2021/01/10 02:47:21;;;;;;;10.40;1.55;;;13.20;99.90;;;;;;4129399;34;20454;-85
2021/01/10 02:49:48;;;;;;;8.95;1.40;;;13.30;99.90;;;;;;4136187;34;20139;-84
2021/01/10 02:52:17;;;;;;;6.05;1.55;;;13.30;99.90;;;;;;4126379;34;20124;-86
2021/01/10 02:54:45;;;;;;;3.15;1.00;;;13.30;99.90;;;;;;4132954;34;20713;-84
2021/01/10 02:57:37;;;;;;;11.48;1.75;;;13.40;99.90;;;;;;4147536;34;20145;-85
2021/01/10 03:00:08;;;;;;;10.63;0.93;;;13.30;99.90;;;;;;4136930;34;20120;-85
2021/01/10 03:02:37;;;;;;;4.93;1.73;;;13.40;99.90;;;;;;4148085;34;20059;-85
2021/01/10 03:05:12;;;;;;;8.20;1.30;;;13.30;99.90;;;;;;4143998;34;20095;-85
2021/01/10 03:07:41;;;;;;;7.12;1.00;;;13.30;99.90;;;;;;4137193;34;20150;-86
2021/01/10 03:13:37;;;;;;;4.55;1.40;;;13.40;99.90;;;;;;4470137;29;20050;-86
2021/01/10 03:16:06;;;;;;;7.03;1.48;;;13.40;99.90;;;;;;4133693;34;20639;-86
2021/01/10 03:18:35;;;;;;;4.43;1.05;;;13.40;99.90;;;;;;4131458;34;20090;-87
2021/01/10 03:24:16;;;;;;;4.72;1.35;;;13.60;99.90;;;;;;4290315;28;20099;-86
2021/01/10 03:26:51;;;;;;;6.80;1.50;;;13.70;99.90;;;;;;4121123;34;20103;-85
2021/01/10 03:29:19;;;;;;;7.03;1.75;;;13.70;99.90;;;;;;4120875;34;20074;-84
2021/01/10 03:31:47;;;;;;;9.10;1.87;;;13.70;99.90;;;;;;4135571;34;20112;-85
2021/01/10 03:34:15;;;;;;;5.30;1.10;;;13.60;99.90;;;;;;4139012;34;20056;-85
2021/01/10 03:36:43;;;;;;;11.20;1.45;;;13.60;99.90;;;;;;4134737;34;20067;-85
2021/01/10 03:39:11;;;;;;;9.00;1.62;;;13.70;99.90;;;;;;4121682;34;20044;-85
2021/01/10 03:41:39;;;;;;;6.40;1.48;;;13.70;99.90;;;;;;4117961;34;20126;-88
2021/01/10 03:44:07;;;;;;;13.80;1.65;;;13.70;99.90;;;;;;4133964;34;20068;-85
2021/01/10 03:46:35;;;;;;;10.38;2.12;;;13.90;99.90;;;;;;4150876;34;20473;-86
2021/01/10 03:49:03;;;;;;;7.65;1.70;;;13.70;99.90;;;;;;4131542;34;20071;-85
2021/01/10 03:51:31;;;;;;;13.85;1.20;;;13.50;99.90;;;;;;4108445;34;20485;-86
2021/01/10 03:53:59;;;;;;;10.65;1.62;;;13.50;99.90;;;;;;4136180;34;20419;-87
2021/01/10 03:56:28;;;;;;;5.10;1.37;;;13.50;99.90;;;;;;4138842;34;20072;-85
2021/01/10 03:58:55;;;;;;;9.77;1.55;;;13.50;99.90;;;;;;4123630;34;20134;-85
2021/01/10 04:01:23;;;;;;;14.60;1.92;;;13.60;99.90;;;;;;4135802;34;20108;-84
2021/01/10 04:03:52;;;;;;;6.07;1.10;;;13.70;99.90;;;;;;4140629;34;20130;-85
2021/01/10 04:06:20;;;;;;;5.47;0.88;;;13.70;99.90;;;;;;4131585;34;20104;-85
2021/01/10 04:08:48;;;;;;;8.35;1.27;;;13.70;99.90;;;;;;4120780;34;20154;-86
2021/01/10 04:11:16;;;;;;;9.25;1.80;;;13.60;99.90;;;;;;4127642;34;20131;-86
2021/01/10 04:13:44;;;;;;;6.97;1.40;;;13.70;99.90;;;;;;4125832;34;20457;-85
2021/01/10 04:16:12;;;;;;;12.52;1.52;;;13.70;99.90;;;;;;4107834;34;20549;-84
2021/01/10 04:18:41;;;;;;;5.53;1.87;;;13.70;99.90;;;;;;4122544;34;20355;-85
2021/01/10 04:21:09;;;;;;;4.25;1.48;;;13.70;99.90;;;;;;4116896;34;20061;-85
2021/01/10 04:23:37;;;;;;;2.53;1.15;;;13.80;99.90;;;;;;4115747;34;20069;-85
2021/01/10 04:26:05;;;;;;;9.15;1.75;;;13.90;99.90;;;;;;4121516;34;20076;-86
2021/01/10 04:28:33;;;;;;;8.50;1.27;;;13.80;99.90;;;;;;4121391;34;20063;-85
2021/01/10 04:31:03;;;;;;;8.32;1.50;;;13.80;99.90;;;;;;4139932;34;20474;-87
2021/01/10 04:33:31;;;;;;;9.77;1.73;;;13.70;99.90;;;;;;4127944;34;20080;-85
2021/01/10 04:36:00;;;;;;;10.88;1.45;;;13.60;99.90;;;;;;4122821;34;20178;-86
2021/01/10 04:38:28;;;;;;;4.50;0.82;;;13.60;99.90;;;;;;4133734;34;20184;-85
2021/01/10 04:40:58;;;;;;;6.12;1.55;;;13.70;99.90;;;;;;4120681;34;20116;-86
2021/01/10 04:43:25;;;;;;;10.45;0.95;;;13.70;99.90;;;;;;4116265;34;20354;-85
2021/01/10 04:45:54;;;;;;;9.80;1.45;;;13.80;99.90;;;;;;4122559;34;20183;-87
2021/01/10 04:48:22;;;;;;;8.30;1.08;;;13.80;99.90;;;;;;4136696;34;20150;-85
2021/01/10 04:50:50;;;;;;;9.15;1.35;;;13.90;99.90;;;;;;4124685;34;20068;-86
2021/01/10 04:53:23;;;;;;;9.25;1.60;;;13.90;99.90;;;;;;4124169;34;20071;-86
2021/01/10 04:55:56;;;;;;;3.17;0.80;;;13.70;99.90;;;;;;4116484;34;20198;-85
2021/01/10 04:58:28;;;;;;;8.73;1.73;;;13.70;99.90;;;;;;4120924;34;20068;-85
2021/01/10 05:01:02;;;;;;;11.55;1.83;;;13.70;99.90;;;;;;4118762;34;20068;-85
2021/01/10 05:03:31;;;;;;;8.60;1.33;;;13.70;99.90;;;;;;4117943;34;20465;-86
2021/01/10 05:06:00;;;;;;;3.72;1.73;;;13.60;99.90;;;;;;4130040;34;20096;-86
2021/01/10 05:08:28;;;;;;;7.32;1.05;;;13.50;99.90;;;;;;4123548;34;20453;-87
2021/01/10 05:10:56;;;;;;;9.25;2.67;;;13.60;99.90;;;;;;4109244;34;20065;-85
2021/01/10 05:13:25;;;;;;;9.02;1.10;;;13.50;99.90;;;;;;4134199;34;20076;-87
2021/01/10 05:15:59;;;;;;;4.15;1.65;;;13.50;99.90;;;;;;4140580;34;20120;-86
2021/01/10 05:18:27;;;;;;;6.57;1.60;;;13.50;99.90;;;;;;4122577;34;20108;-86
2021/01/10 05:20:56;;;;;;;5.95;1.80;;;13.60;99.90;;;;;;4122581;34;20155;-84
2021/01/10 05:23:26;;;;;;;6.10;1.70;;;13.70;99.90;;;;;;4115715;34;20479;-86
2021/01/10 05:26:14;;;;;;;2.12;1.00;;;13.70;99.90;;;;;;4131415;34;20144;-86
2021/01/10 05:28:44;;;;;;;11.27;2.30;;;13.70;99.90;;;;;;4110870;34;20541;-85
2021/01/10 05:31:30;;;;;;;12.00;2.20;;;13.80;99.90;;;;;;4118622;34;20088;-86
2021/01/10 05:33:58;;;;;;;10.02;2.05;;;13.50;99.90;;;;;;4122755;34;20122;-88
2021/01/10 05:36:28;;;;;;;12.10;2.20;;;12.90;99.90;;;;;;4137236;34;20103;-88
2021/01/10 05:39:13;;;;;;;10.57;1.77;;;12.60;99.90;;;;;;4129081;34;20102;-86
2021/01/10 05:42:10;;;;;;;5.90;1.02;;;12.50;99.90;;;;;;4122392;34;20379;-87
2021/01/10 05:44:38;;;;;;;9.60;1.75;;;12.50;99.90;;;;;;4117070;34;20163;-86
2021/01/10 05:47:09;;;;;;;10.30;1.52;;;12.50;99.90;;;;;;4129644;34;20199;-87
2021/01/10 05:49:46;;;;;;;1.77;0.80;;;12.50;99.90;;;;;;4138737;34;20060;-87
2021/01/10 05:52:15;;;;;;;7.15;1.42;;;12.50;99.90;;;;;;4129732;34;20118;-86
2021/01/10 05:54:48;;;;;;;5.62;1.20;;;12.50;99.90;;;;;;4125604;34;20174;-87
2021/01/10 05:57:24;;;;;;;5.05;0.85;;;12.70;99.90;;;;;;4119245;34;20370;-86
2021/01/10 05:59:53;;;;;;;10.20;1.40;;;12.80;99.90;;;;;;4127568;34;20550;-87
2021/01/10 06:02:28;;;;;;;5.78;1.00;;;12.80;99.90;;;;;;4132617;34;20064;-86
2021/01/10 06:05:18;;;;;;;9.32;1.37;;;12.80;99.90;;;;;;4127422;34;20059;-87
2021/01/10 06:07:49;;;;;;;2.50;1.20;;;12.80;99.90;;;;;;4126527;34;20056;-87
2021/01/10 06:10:28;;;;;;;5.95;1.33;;;12.80;99.90;;;;;;4123636;34;20436;-85
2021/01/10 06:13:05;;;;;;;6.80;1.40;;;12.90;99.90;;;;;;4124254;34;20728;-88
2021/01/10 06:15:35;;;;;;;4.47;1.23;;;12.90;99.90;;;;;;4134174;34;20093;-86
2021/01/10 06:18:05;;;;;;;14.57;2.33;;;13.00;99.90;;;;;;4119571;34;20506;-86
2021/01/10 06:20:34;;;;;;;10.35;1.42;;;13.10;99.90;;;;;;4150948;34;20060;-85
2021/01/10 06:23:06;;;;;;;12.70;1.52;;;13.10;99.90;;;;;;4133513;34;20140;-87
2021/01/10 06:25:37;;;;;;;11.88;1.83;;;13.20;99.90;;;;;;4126030;34;20076;-85
2021/01/10 06:28:08;;;;;;;3.50;1.15;;;13.30;99.90;;;;;;4108785;34;20117;-87
2021/01/10 06:30:38;;;;;;;6.72;1.20;;;13.20;99.90;;;;;;4138128;34;20437;-86
2021/01/10 06:33:11;;;;;;;3.80;0.90;;;13.30;99.90;;;;;;4120390;34;20049;-87
2021/01/10 06:35:41;;;;;;;4.22;1.10;;;13.40;99.90;;;;;;4129163;34;20053;-86
2021/01/10 06:38:10;;;;;;;12.10;1.40;;;13.30;99.90;;;;;;4118976;34;20131;-88
2021/01/10 06:40:41;;;;;;;10.77;1.60;;;13.20;99.90;;;;;;4120408;34;20091;-86
2021/01/10 06:43:13;;;;;;;7.80;1.08;;;13.00;99.90;;;;;;4136016;34;20426;-87
2021/01/10 06:45:41;;;;;;;5.57;1.00;;;12.90;99.90;;;;;;4109541;34;20115;-86
2021/01/10 06:48:09;;;;;;;4.15;1.35;;;13.00;99.90;;;;;;4129647;34;20091;-86
2021/01/10 06:50:38;;;;;;;9.52;1.02;;;12.90;99.90;;;;;;4125486;34;20366;-87
2021/01/10 06:53:13;;;;;;;1.20;0.47;;;13.00;99.90;;;;;;4111634;34;20508;-85
2021/01/10 06:55:45;;;;;;;7.40;0.98;;;12.90;99.90;;;;;;4113932;34;20143;-86
2021/01/10 06:58:12;;;;;;;11.48;1.20;;;12.80;99.90;;;;;;4127937;34;20100;-87
2021/01/10 07:00:54;;;;;;;11.10;1.98;;;12.80;99.90;;;;;;4119463;34;20382;-87
2021/01/10 07:03:24;;;;;;;8.60;1.30;;;12.70;99.90;;;;;;4116014;34;20153;-85
2021/01/10 07:06:12;;;;;;;7.35;2.15;;;12.70;99.90;;;;;;4131451;34;20104;-86
2021/01/10 07:08:52;;;;;;;11.80;2.10;;;12.80;99.90;;;;;;4136714;34;20223;-86
2021/01/10 07:11:23;;;;;;;5.00;1.00;;;12.90;99.90;;;;;;4127565;34;20461;-86
2021/01/10 07:14:12;;;;;;;7.53;2.25;;;13.00;99.90;;;;;;4121145;34;20072;-86
2021/01/10 07:16:43;;;;;;;7.45;1.50;;;13.00;99.90;;;;;;4125219;34;20072;-86
2021/01/10 07:19:13;;;;;;;2.30;0.90;;;13.20;99.90;;;;;;4111160;34;20168;-88
2021/01/10 07:21:49;;;;;;;5.90;1.45;;;13.40;99.90;;;;;;4130304;34;20064;-87
2021/01/10 07:24:20;;;;;;;10.63;1.17;;;13.60;99.90;;;;;;4139897;34;20048;-86
2021/01/10 07:26:58;;;;;;;3.40;1.00;;;13.50;99.90;;;;;;4135337;34;20469;-87
2021/01/10 07:29:26;;;;;;;8.70;1.62;;;13.40;99.90;;;;;;4133540;34;20453;-87
2021/01/10 07:32:07;;;;;;;6.87;1.12;;;13.30;99.90;;;;;;4128934;34;20057;-85
2021/01/10 07:34:46;;;;;;;7.85;1.27;;;13.40;99.90;;;;;;4123900;34;20080;-85
2021/01/10 07:37:17;;;;;;;6.07;1.58;;;13.30;99.90;;;;;;4117883;34;20065;-85
2021/01/10 07:39:49;;;;;;;8.80;1.65;;;13.40;99.90;;;;;;4140421;34;20072;-86
2021/01/10 07:42:19;;;;;;;2.35;1.27;;;13.30;99.90;;;;;;4138199;34;20092;-87
2021/01/10 07:44:54;;;;;;;4.70;1.10;;;13.40;99.90;;;;;;4129994;34;20126;-86
2021/01/10 07:47:42;;;;;;;3.55;0.90;;;13.60;99.90;;;;;;4123246;34;20556;-86
2021/01/10 07:50:17;;;;;;;4.30;1.35;;;13.50;99.90;;;;;;4132743;34;20135;-86
2021/01/10 07:52:45;;;;;;;6.22;1.20;;;13.40;99.90;;;;;;4137204;34;20049;-85
2021/01/10 07:55:19;;;;;;;2.65;1.00;;;13.50;99.90;;;;;;4122395;34;20062;-85
2021/01/10 07:57:51;;;;;;;5.95;1.10;;;13.50;99.90;;;;;;4129173;34;20069;-85
2021/01/10 08:00:27;;;;;;;12.43;1.80;;;13.50;99.90;;;;;;4150231;34;20124;-86
2021/01/10 08:03:00;;;;;;;5.53;1.33;;;13.60;99.90;;;;;;4133530;34;20060;-85
2021/01/10 08:05:28;;;;;;;4.07;0.85;;;13.60;99.90;;;;;;4131994;34;20124;-86
2021/01/10 08:07:59;;;;;;;5.85;1.42;;;13.80;99.90;;;;;;4126685;34;20449;-85
2021/01/10 08:10:48;;;;;;;7.37;1.20;;;13.90;99.90;;;;;;4130215;34;20169;-86
2021/01/10 08:13:26;;;;;;;42.50;39.08;;;13.90;99.90;;;;;;4119226;34;20163;-87
2021/01/10 08:16:05;;;;;;;43.63;41.10;;;13.90;99.90;;;;;;4147996;34;20068;-85
2021/01/10 08:18:38;;;;;;;46.13;43.22;;;14.00;99.90;;;;;;4129295;34;20160;-86
2021/01/10 08:21:14;;;;;;;46.67;43.05;;;14.00;99.90;;;;;;4143142;34;20061;-86
2021/01/10 08:23:45;;;;;;;44.88;41.72;;;14.10;99.90;;;;;;4129636;34;20134;-86
2021/01/10 08:26:15;;;;;;;4.22;1.08;;;14.20;99.90;;;;;;4129675;34;20494;-86
2021/01/10 08:28:46;;;;;;;8.77;1.50;;;14.00;99.90;;;;;;4115004;34;20554;-86
2021/01/10 08:31:22;;;;;;;7.30;4.55;;;14.10;99.90;;;;;;4127331;34;20547;-86
2021/01/10 08:34:08;;;;;;;61.15;56.90;;;14.40;99.90;;;;;;4139319;34;20420;-86
2021/01/10 08:36:37;;;;;;;24.87;23.10;;;14.60;99.90;;;;;;4121434;34;20528;-87
2021/01/10 08:39:08;;;;;;;3.35;1.00;;;15.30;99.90;;;;;;4126465;34;20076;-86
2021/01/10 08:41:45;;;;;;;8.63;7.78;;;14.90;99.90;;;;;;4114539;34;20123;-87
2021/01/10 08:44:18;;;;;;;8.80;8.32;;;15.20;99.90;;;;;;4112486;34;20083;-86
2021/01/10 08:46:51;;;;;;;3.72;0.95;;;16.50;99.90;;;;;;4116082;34;20444;-87
2021/01/10 08:49:25;;;;;;;2.83;1.25;;;15.80;98.80;;;;;;4112712;34;20106;-85
2021/01/10 08:51:53;;;;;;;1.58;1.27;;;15.40;99.60;;;;;;4132163;34;20093;-85
2021/01/10 08:54:23;;;;;;;4.75;4.22;;;15.40;99.50;;;;;;4140145;34;20295;-88
2021/01/10 08:56:53;;;;;;;1.95;1.85;;;15.30;99.40;;;;;;4133352;34;20120;-87
2021/01/10 08:59:39;;;;;;;4.45;0.88;;;15.50;99.90;;;;;;4145546;34;20461;-86
2021/01/10 09:02:10;;;;;;;5.53;4.97;;;15.60;99.90;;;;;;4142979;34;20116;-87
2021/01/10 09:04:43;;;;;;;10.45;1.12;;;15.80;99.90;;;;;;4134610;34;20045;-87
2021/01/10 09:07:12;;;;;;;9.93;1.58;;;15.70;99.90;;;;;;4139873;34;20059;-88
2021/01/10 09:09:48;;;;;;;4.18;0.95;;;15.60;99.90;;;;;;4141218;34;20215;-87
2021/01/10 09:12:31;;;;;;;7.47;2.08;;;15.60;99.90;;;;;;4138856;34;20107;-90
2021/01/10 09:15:10;;;;;;;8.80;7.10;;;15.70;99.90;;;;;;4144724;34;20033;-88
2021/01/10 09:17:45;;;;;;;3.62;2.70;;;16.30;97.70;;;;;;4142955;34;20474;-85
2021/01/10 09:20:26;;;;;;;5.68;5.25;;;16.20;97.10;;;;;;4139983;34;20107;-85
2021/01/10 09:22:57;;;;;;;5.37;1.00;;;16.30;97.90;;;;;;4137449;34;20037;-84
2021/01/10 09:25:25;;;;;;;8.88;2.70;;;16.90;98.40;;;;;;4135144;34;20128;-90
2021/01/10 09:28:17;;;;;;;10.70;9.60;;;16.40;99.90;;;;;;4138078;34;20128;-91
2021/01/10 09:30:51;;;;;;;6.85;1.48;;;16.10;99.90;;;;;;4141467;34;20485;-86
2021/01/10 09:33:28;;;;;;;4.78;1.40;;;16.30;99.90;;;;;;4138037;34;20090;-93
2021/01/10 09:36:03;;;;;;;7.62;3.50;;;16.20;99.90;;;;;;4133531;34;20173;-86
2021/01/10 09:38:32;;;;;;;8.20;1.85;;;16.40;99.90;;;;;;4117401;34;20123;-89
2021/01/10 09:41:12;;;;;;;7.18;1.33;;;16.00;99.90;;;;;;4140675;34;20438;-87
2021/01/10 09:43:46;;;;;;;8.40;1.48;;;15.50;99.90;;;;;;4137146;34;20104;-92
2021/01/10 09:46:34;;;;;;;3.90;1.75;;;15.10;99.90;;;;;;4143149;34;20064;-90
2021/01/10 09:49:07;;;;;;;10.85;9.85;;;15.00;99.90;;;;;;4130186;34;20177;-87
2021/01/10 09:51:50;;;;;;;5.50;5.12;;;18.00;97.80;;;;;;4125513;34;20189;-86
2021/01/10 09:54:26;;;;;;;5.22;4.18;;;17.50;96.40;;;;;;4132296;34;20120;-86
2021/01/10 09:57:02;;;;;;;6.28;5.87;;;19.70;92.00;;;;;;4128023;34;20091;-90
2021/01/10 09:59:34;;;;;;;7.53;1.90;;;22.20;87.10;;;;;;4146156;34;20210;-88
2021/01/10 10:02:11;;;;;;;3.10;1.10;;;22.60;78.20;;;;;;4138013;34;20065;-90
2021/01/10 10:04:41;;;;;;;3.55;1.25;;;20.70;84.40;;;;;;4140086;34;20135;-89
2021/01/10 10:07:09;;;;;;;5.20;1.35;;;19.10;91.80;;;;;;4127865;34;20060;-86
2021/01/10 10:09:44;;;;;;;4.37;1.30;;;17.70;95.70;;;;;;4127967;34;20088;-86
2021/01/10 10:12:15;;;;;;;7.45;2.95;;;17.50;99.90;;;;;;4139126;34;20120;-89
2021/01/10 10:15:05;;;;;;;5.70;2.42;;;17.50;97.40;;;;;;4134189;34;20104;-88
2021/01/10 10:17:38;;;;;;;9.65;1.80;;;18.70;94.70;;;;;;4154247;34;20077;-88
2021/01/10 10:20:08;;;;;;;3.92;1.25;;;17.30;98.30;;;;;;4132976;34;20101;-86
2021/01/10 10:22:38;;;;;;;6.85;6.22;;;16.80;99.00;;;;;;4133152;34;20579;-86
2021/01/10 10:25:12;;;;;;;5.40;5.00;;;19.60;94.50;;;;;;4125983;34;20110;-88
2021/01/10 10:27:55;;;;;;;4.00;3.60;;;20.50;85.20;;;;;;4111411;34;20150;-89
2021/01/10 10:30:25;;;;;;;4.05;3.78;;;22.20;78.80;;;;;;4127519;34;20064;-87
2021/01/10 10:32:54;;;;;;;3.85;3.60;;;22.60;74.70;;;;;;4118889;34;20480;-89
2021/01/10 10:35:23;;;;;;;1.65;1.37;;;22.50;73.30;;;;;;4134951;34;20114;-87
2021/01/10 10:37:51;;;;;;;3.90;3.60;;;21.40;79.20;;;;;;4139107;34;20511;-90
2021/01/10 10:40:20;;;;;;;8.95;4.00;;;22.50;75.70;;;;;;4139373;34;20068;-87
2021/01/10 10:42:49;;;;;;;3.97;3.20;;;23.50;73.90;;;;;;4134380;34;20115;-93
2021/01/10 10:45:18;;;;;;;5.07;1.80;;;23.50;70.10;;;;;;4136505;34;20065;-87
2021/01/10 10:47:47;;;;;;;4.72;3.72;;;23.50;71.90;;;;;;4140168;34;20084;-90
2021/01/10 10:50:15;;;;;;;7.87;4.20;;;22.60;72.40;;;;;;4135269;34;20841;-87
2021/01/10 10:52:43;;;;;;;4.62;3.30;;;22.30;73.60;;;;;;4139378;34;20041;-87
2021/01/10 10:55:12;;;;;;;3.17;2.90;;;23.40;72.60;;;;;;4118500;34;20084;-89
2021/01/10 10:57:43;;;;;;;5.32;2.65;;;24.40;70.20;;;;;;4133635;34;20120;-90
2021/01/10 11:00:16;;;;;;;4.43;3.22;;;22.90;71.20;;;;;;4144616;34;20148;-86
2021/01/10 11:02:48;;;;;;;6.45;3.40;;;21.90;77.40;;;;;;4128095;34;20073;-86
2021/01/10 11:05:17;;;;;;;2.90;1.50;;;23.40;76.30;;;;;;4121267;34;20084;-89
2021/01/10 11:07:45;;;;;;;9.32;3.35;;;21.90;74.70;;;;;;4137185;34;20441;-87
2021/01/10 11:10:13;;;;;;;2.37;0.60;;;23.10;72.60;;;;;;4124880;34;20123;-86
2021/01/10 11:12:41;;;;;;;13.57;2.05;;;20.60;82.10;;;;;;4125886;34;20650;-86
2021/01/10 11:15:12;;;;;;;9.30;1.60;;;18.30;96.10;;;;;;4132657;34;20166;-88
2021/01/10 11:17:41;;;;;;;5.03;1.10;;;17.40;99.90;;;;;;4115342;34;20450;-86
2021/01/10 11:20:09;;;;;;;4.25;1.45;;;17.10;99.90;;;;;;4116399;34;20326;-88
2021/01/10 11:22:51;;;;;;;4.37;1.48;;;17.40;99.90;;;;;;4135334;34;20052;-92
2021/01/10 11:25:19;;;;;;;5.22;1.30;;;18.10;99.80;;;;;;4123662;34;20078;-89
2021/01/10 11:27:49;;;;;;;1.77;1.33;;;18.50;99.60;;;;;;4136420;34;20427;-90
2021/01/10 11:30:18;;;;;;;7.12;1.60;;;19.80;98.10;;;;;;4132731;34;20065;-90
2021/01/10 11:32:47;;;;;;;4.93;1.60;;;20.60;95.30;;;;;;4131613;34;20091;-88
2021/01/10 11:35:15;;;;;;;3.62;1.37;;;22.10;91.20;;;;;;4127524;34;20099;-89
2021/01/10 11:37:43;;;;;;;5.70;1.30;;;22.30;91.00;;;;;;4109949;34;20141;-88
2021/01/10 11:40:13;;;;;;;5.68;1.05;;;20.10;94.00;;;;;;4103854;34;20104;-93
2021/01/10 11:42:41;;;;;;;7.82;1.35;;;18.30;99.90;;;;;;4122143;34;20491;-88
2021/01/10 11:45:09;;;;;;;3.08;0.90;;;17.90;99.90;;;;;;4115723;34;20064;-91
2021/01/10 11:47:37;;;;;;;5.18;1.48;;;18.20;99.90;;;;;;4122096;34;20064;-87
2021/01/10 11:50:06;;;;;;;4.70;1.55;;;18.60;99.80;;;;;;4122034;34;20139;-90
2021/01/10 11:52:34;;;;;;;5.15;1.27;;;18.90;99.90;;;;;;4137728;34;20040;-91
2021/01/10 11:55:03;;;;;;;9.32;3.10;;;19.20;99.90;;;;;;4137432;34;20461;-92
2021/01/10 11:57:39;;;;;;;4.03;1.73;;;20.80;98.30;;;;;;4136425;34;20124;-91
2021/01/10 12:00:08;;;;;;;5.70;1.73;;;21.60;93.90;;;;;;4131399;34;20103;-88
2021/01/10 12:02:39;;;;;;;5.15;1.87;;;21.60;93.20;;;;;;4117432;34;20088;-91
2021/01/10 12:05:08;;;;;;;3.30;1.23;;;22.20;91.70;;;;;;4132329;34;20115;-93
2021/01/10 12:07:36;;;;;;;5.43;1.08;;;21.40;93.40;;;;;;4129185;34;20464;-88
2021/01/10 12:10:05;;;;;;;3.42;1.12;;;20.60;93.70;;;;;;4122481;34;20142;-87
2021/01/10 12:12:34;;;;;;;3.78;1.05;;;19.50;98.60;;;;;;4135506;34;20519;-89
2021/01/10 12:15:04;;;;;;;4.40;0.80;;;19.00;99.30;;;;;;4138223;34;20112;-88
2021/01/10 12:17:32;;;;;;;5.70;1.42;;;19.10;98.70;;;;;;4133940;34;20135;-91
2021/01/10 12:20:04;;;;;;;6.40;1.60;;;19.50;97.90;;;;;;4134048;34;20093;-88
2021/01/10 12:22:33;;;;;;;3.75;2.20;;;20.20;97.20;;;;;;4135917;34;20172;-89
2021/01/10 12:25:01;;;;;;;5.45;1.40;;;22.30;93.80;;;;;;4137511;34;20147;-88
2021/01/10 12:27:29;;;;;;;5.45;1.25;;;22.00;90.60;;;;;;4139360;34;20490;-87
2021/01/10 12:30:00;;;;;;;6.03;1.27;;;19.60;93.60;;;;;;4140553;34;20068;-88
2021/01/10 12:32:41;;;;;;;7.32;1.50;;;19.50;95.40;;;;;;4129205;34;20049;-86
2021/01/10 12:35:15;;;;;;;3.85;0.90;;;19.60;96.50;;;;;;4122718;34;20176;-87
2021/01/10 12:37:43;;;;;;;5.12;1.40;;;18.50;99.90;;;;;;4137547;34;20132;-87
2021/01/10 12:40:13;;;;;;;3.00;1.80;;;19.40;99.90;;;;;;4125870;34;20327;-89
2021/01/10 12:42:42;;;;;;;3.70;2.08;;;21.40;92.60;;;;;;4138322;34;20075;-89
2021/01/10 12:45:21;;;;;;;4.40;0.98;;;21.40;91.80;;;;;;4130818;34;21590;-88
2021/01/10 12:47:51;;;;;;;3.65;0.95;;;21.00;92.10;;;;;;4143221;34;20176;-86
2021/01/10 12:50:21;;;;;;;2.60;0.82;;;20.30;91.70;;;;;;4141008;34;20496;-86
2021/01/10 12:52:51;;;;;;;2.55;0.80;;;19.20;92.40;;;;;;4136881;34;20600;-86
2021/01/10 12:55:19;;;;;;;3.53;1.27;;;18.30;94.60;;;;;;4127457;34;20099;-86
2021/01/10 12:57:47;;;;;;;3.30;1.23;;;17.90;95.90;;;;;;4125391;34;20087;-85
2021/01/10 13:00:16;;;;;;;1.98;1.08;;;17.70;96.50;;;;;;4137083;34;20904;-87
2021/01/10 13:02:44;;;;;;;5.85;1.12;;;17.70;96.30;;;;;;4124963;34;20122;-88
2021/01/10 13:05:16;;;;;;;2.67;1.20;;;18.40;96.10;;;;;;4128183;34;20584;-86
2021/01/10 13:07:48;;;;;;;5.82;1.23;;;18.70;94.50;;;;;;4139775;34;20096;-88
2021/01/10 13:10:20;;;;;;;4.95;1.25;;;18.70;94.60;;;;;;4142373;34;20166;-86
2021/01/10 13:12:54;;;;;;;5.93;0.88;;;18.90;95.00;;;;;;4139013;34;20229;-86
2021/01/10 13:15:22;;;;;;;7.18;1.45;;;18.30;93.60;;;;;;4140473;34;20045;-85